Terminal Aerodrome Forecast
Issued by NWS

Current Version | Previous Version | Text Only | Print | Product List | Glossary Off
Versions: 1 2 3 4 5 6 7 8 9 10 11 12 13 14 15 16 17 18 19 20 21 22 23 24 25 26 27 28 29 30 31 32 33 34 35 36 37 38

000
FTUS41 KRNK 171135
TAFLWB
TAF
KLWB 171135Z 1712/1812 22003KT P6SM SCT060
     FM171600 25008KT P6SM SKC
     FM180000 00000KT P6SM SKC
     FM180900 28003KT P6SM SKC WS020/29035KT=

USA.gov is the U.S. government's official web portal to all federal, state and local government web resources and services.